createdAt,value
2017-06-17T00:00:54.521Z,59.90
2017-06-17T00:03:22.711Z,60.30
2017-06-17T00:05:51.872Z,60.40
2017-06-17T00:08:20.733Z,60.70
2017-06-17T00:10:48.796Z,60.70
2017-06-17T00:13:16.992Z,60.70
2017-06-17T00:15:45.345Z,60.70
2017-06-17T00:18:13.140Z,60.60
2017-06-17T00:20:40.883Z,60.50
2017-06-17T00:23:09.467Z,60.60
2017-06-17T00:25:37.100Z,60.60
2017-06-17T00:28:04.713Z,60.60
2017-06-17T00:30:32.421Z,60.20
2017-06-17T00:32:59.929Z,60.20
2017-06-17T00:35:27.454Z,60.40
2017-06-17T00:37:55.737Z,60.40
2017-06-17T00:40:23.223Z,60.00
2017-06-17T00:42:50.742Z,59.90
2017-06-17T00:45:18.451Z,60.10
2017-06-17T00:47:45.932Z,60.00
2017-06-17T00:50:13.404Z,60.00
2017-06-17T00:52:41.003Z,60.20
2017-06-17T00:55:08.465Z,60.20
2017-06-17T00:57:35.997Z,60.10
2017-06-17T01:00:04.085Z,60.20
2017-06-17T01:02:31.571Z,60.30
2017-06-17T01:04:59.036Z,60.60
2017-06-17T01:07:26.844Z,60.50
2017-06-17T01:09:54.308Z,60.50
2017-06-17T01:12:21.778Z,60.60
2017-06-17T01:14:49.597Z,60.80
2017-06-17T01:17:17.275Z,60.70
2017-06-17T01:19:44.875Z,60.60
2017-06-17T01:22:12.364Z,60.70
2017-06-17T01:24:39.870Z,60.70
2017-06-17T01:27:07.750Z,61.10
2017-06-17T01:29:35.252Z,61.10
2017-06-17T01:32:03.203Z,61.30
2017-06-17T01:34:34.617Z,61.40
2017-06-17T01:37:02.497Z,61.40
2017-06-17T01:39:30.358Z,61.40
2017-06-17T01:41:57.892Z,61.40
2017-06-17T01:44:25.381Z,61.50
2017-06-17T01:46:52.867Z,61.60
2017-06-17T01:49:20.485Z,61.70
2017-06-17T01:51:47.970Z,61.90
2017-06-17T01:54:15.451Z,61.70
2017-06-17T01:56:42.954Z,61.60
2017-06-17T01:59:10.478Z,61.50
2017-06-17T02:01:37.960Z,61.80
2017-06-17T02:04:05.482Z,61.70
2017-06-17T02:06:33.579Z,61.60
2017-06-17T02:09:01.053Z,61.50
2017-06-17T02:11:28.543Z,61.50
2017-06-17T02:13:56.103Z,61.50
2017-06-17T02:16:23.575Z,61.60
2017-06-17T02:18:51.103Z,61.70
2017-06-17T02:21:24.322Z,61.70
2017-06-17T02:23:51.837Z,61.70
2017-06-17T02:26:19.295Z,62.00
2017-06-17T02:28:46.772Z,62.00
2017-06-17T02:31:14.603Z,62.00
2017-06-17T02:33:42.145Z,62.00
2017-06-17T02:36:09.675Z,62.00
2017-06-17T02:38:37.584Z,61.90
2017-06-17T02:41:05.224Z,61.90
2017-06-17T02:43:32.795Z,61.90
2017-06-17T02:46:00.252Z,61.80
2017-06-17T02:48:28.086Z,61.90
2017-06-17T02:50:55.580Z,61.80
2017-06-17T02:53:23.543Z,62.00
2017-06-17T02:55:51.092Z,62.00
2017-06-17T02:58:18.586Z,62.00
2017-06-17T03:00:46.151Z,62.10
2017-06-17T03:03:13.677Z,62.20
2017-06-17T03:05:41.191Z,62.00
2017-06-17T03:08:08.702Z,62.10
2017-06-17T03:10:36.291Z,62.20
2017-06-17T03:13:03.745Z,62.50
2017-06-17T03:15:31.271Z,62.20
2017-06-17T03:17:58.760Z,62.00
2017-06-17T03:20:26.765Z,62.00
2017-06-17T03:22:54.349Z,61.90
2017-06-17T03:25:21.838Z,62.00
2017-06-17T03:27:49.341Z,61.90
2017-06-17T03:30:17.212Z,61.90
2017-06-17T03:32:45.092Z,62.00
2017-06-17T03:35:12.597Z,62.00
2017-06-17T03:37:40.232Z,62.20
2017-06-17T03:40:07.726Z,62.10
2017-06-17T03:42:35.204Z,62.40
2017-06-17T03:45:02.699Z,62.50
2017-06-17T03:47:30.261Z,62.80
2017-06-17T03:49:57.869Z,62.90
2017-06-17T03:52:25.490Z,63.10
2017-06-17T03:54:53.039Z,63.20
2017-06-17T03:57:22.174Z,63.30
2017-06-17T03:59:49.719Z,63.40
2017-06-17T04:02:17.637Z,63.60
2017-06-17T04:04:45.967Z,63.50
2017-06-17T04:07:13.659Z,63.50
2017-06-17T04:09:41.120Z,63.70
2017-06-17T04:12:08.614Z,63.70
2017-06-17T04:14:36.082Z,63.70
2017-06-17T04:17:03.731Z,63.70
2017-06-17T04:19:31.302Z,63.70
2017-06-17T04:21:58.863Z,63.60
2017-06-17T04:24:26.485Z,63.60
2017-06-17T04:26:53.974Z,63.50
2017-06-17T04:29:21.828Z,63.70
2017-06-17T04:31:49.621Z,63.70
2017-06-17T04:34:17.189Z,63.60
2017-06-17T04:36:44.673Z,63.60
2017-06-17T04:39:12.265Z,63.60
2017-06-17T04:41:39.743Z,63.70
2017-06-17T04:44:07.627Z,63.90
2017-06-17T04:46:35.206Z,63.90
2017-06-17T04:49:02.678Z,63.80
2017-06-17T04:51:30.186Z,63.80
2017-06-17T04:53:57.682Z,63.80
2017-06-17T04:56:25.238Z,63.80
2017-06-17T04:58:53.167Z,63.60
2017-06-17T05:01:22.966Z,63.60
2017-06-17T05:03:50.475Z,63.50
2017-06-17T05:06:18.014Z,63.80
2017-06-17T05:08:45.494Z,63.80
2017-06-17T05:11:12.975Z,63.70
2017-06-17T05:13:40.530Z,63.90
2017-06-17T05:16:08.031Z,63.60
2017-06-17T05:18:35.511Z,63.40
2017-06-17T05:21:03.051Z,63.40
2017-06-17T05:23:30.552Z,63.30
2017-06-17T05:25:58.049Z,63.30
2017-06-17T05:28:25.591Z,63.20
2017-06-17T05:30:53.086Z,62.90
2017-06-17T05:33:21.242Z,62.90
2017-06-17T05:35:48.927Z,62.60
2017-06-17T05:38:16.423Z,62.70
2017-06-17T05:40:43.926Z,62.40
2017-06-17T05:43:11.446Z,62.30
2017-06-17T05:45:38.954Z,62.40
2017-06-17T05:48:06.539Z,62.40
2017-06-17T05:50:34.063Z,62.30
2017-06-17T05:53:01.523Z,62.10
2017-06-17T05:55:29.030Z,61.80
2017-06-17T05:57:56.542Z,61.20
2017-06-17T06:00:23.995Z,61.40
2017-06-17T06:02:51.508Z,61.00
2017-06-17T06:05:19.011Z,60.40
2017-06-17T06:07:46.488Z,60.60
2017-06-17T06:10:14.222Z,60.50
2017-06-17T06:12:41.781Z,60.30
2017-06-17T06:15:09.655Z,60.10
2017-06-17T06:17:37.425Z,60.10
2017-06-17T06:20:05.357Z,60.20
2017-06-17T06:22:32.990Z,60.30
2017-06-17T06:25:00.478Z,60.10
2017-06-17T06:27:27.988Z,60.50
2017-06-17T06:29:55.862Z,59.80
2017-06-17T06:32:23.386Z,59.90
2017-06-17T06:34:50.911Z,59.40
2017-06-17T06:37:18.406Z,59.70
2017-06-17T06:39:45.890Z,59.80
2017-06-17T06:42:13.558Z,59.90
2017-06-17T06:44:41.071Z,59.30
2017-06-17T06:47:08.561Z,59.80
2017-06-17T06:49:36.283Z,60.10
2017-06-17T06:52:03.826Z,59.50
2017-06-17T06:54:31.700Z,59.90
2017-06-17T06:56:59.302Z,59.90
2017-06-17T06:59:26.780Z,59.70
2017-06-17T07:01:54.294Z,59.20
2017-06-17T07:04:21.837Z,59.30
2017-06-17T07:06:49.336Z,59.60
2017-06-17T07:09:16.866Z,59.70
2017-06-17T07:11:44.346Z,59.90
2017-06-17T07:14:12.275Z,59.40
2017-06-17T07:16:39.746Z,59.40
2017-06-17T07:19:07.227Z,59.40
2017-06-17T07:21:34.755Z,59.30
2017-06-17T07:24:02.240Z,58.90
2017-06-17T07:26:29.705Z,59.20
2017-06-17T07:28:57.205Z,59.60
2017-06-17T07:31:24.759Z,59.20
2017-06-17T07:33:52.211Z,59.50
2017-06-17T07:36:19.769Z,59.20
2017-06-17T07:38:47.583Z,58.70
2017-06-17T07:41:15.060Z,58.50
2017-06-17T07:43:42.577Z,58.50
2017-06-17T07:46:10.197Z,58.50
2017-06-17T07:48:37.666Z,58.30
2017-06-17T07:51:05.158Z,58.20
2017-06-17T07:53:32.745Z,57.30
2017-06-17T07:56:00.275Z,57.70
2017-06-17T07:58:27.753Z,57.90
2017-06-17T08:00:55.279Z,56.50
2017-06-17T08:03:22.779Z,56.40
2017-06-17T08:05:50.272Z,55.90
2017-06-17T08:08:17.835Z,56.80
2017-06-17T08:10:46.228Z,55.90
2017-06-17T08:13:13.744Z,55.80
2017-06-17T08:15:41.311Z,55.80
2017-06-17T08:18:09.066Z,55.90
2017-06-17T08:20:36.554Z,55.40
2017-06-17T08:23:04.110Z,55.80
2017-06-17T08:25:31.656Z,55.70
2017-06-17T08:27:59.145Z,55.80
2017-06-17T08:30:26.772Z,55.30
2017-06-17T08:32:55.270Z,55.60
2017-06-17T08:35:23.537Z,55.70
2017-06-17T08:37:51.094Z,55.60
2017-06-17T08:40:18.539Z,55.60
2017-06-17T08:42:46.013Z,55.70
2017-06-17T08:45:13.715Z,56.10
2017-06-17T08:47:41.215Z,56.40
2017-06-17T08:50:08.701Z,56.10
2017-06-17T08:52:37.121Z,56.50
2017-06-17T08:55:04.592Z,56.80
2017-06-17T08:57:32.074Z,57.10
2017-06-17T09:00:00.019Z,56.90
2017-06-17T09:02:27.496Z,56.90
2017-06-17T09:04:55.602Z,57.00
2017-06-17T09:07:23.079Z,57.00
2017-06-17T09:09:50.536Z,56.80
2017-06-17T09:12:18.071Z,57.00
2017-06-17T09:14:45.548Z,57.30
2017-06-17T09:17:13.021Z,57.40
2017-06-17T09:19:40.568Z,57.20
2017-06-17T09:22:08.128Z,57.30
2017-06-17T09:24:36.059Z,57.40
2017-06-17T09:27:03.640Z,57.40
2017-06-17T09:29:31.152Z,57.70
2017-06-17T09:31:58.637Z,57.40
2017-06-17T09:34:26.525Z,57.10
2017-06-17T09:36:54.067Z,56.60
2017-06-17T09:39:21.560Z,57.10
2017-06-17T09:41:49.145Z,57.70
2017-06-17T09:44:17.132Z,57.40
2017-06-17T09:46:44.666Z,57.40
2017-06-17T09:49:12.135Z,57.20
2017-06-17T09:51:39.627Z,56.60
2017-06-17T09:54:07.129Z,57.10
2017-06-17T09:56:34.652Z,57.70
2017-06-17T09:59:02.139Z,57.00
2017-06-17T10:01:29.620Z,57.00
2017-06-17T10:03:57.123Z,56.70
2017-06-17T10:06:24.624Z,56.40
2017-06-17T10:08:52.135Z,56.60
2017-06-17T10:11:19.646Z,56.80
2017-06-17T10:13:47.356Z,56.30
2017-06-17T10:16:14.976Z,56.50
2017-06-17T10:18:42.543Z,56.90
2017-06-17T10:21:10.039Z,56.70
2017-06-17T10:23:37.737Z,56.80
2017-06-17T10:26:05.233Z,57.50
2017-06-17T10:28:32.794Z,56.20
2017-06-17T10:31:00.295Z,55.70
2017-06-17T10:33:29.426Z,55.90
2017-06-17T10:35:56.917Z,55.80
2017-06-17T10:38:24.425Z,55.80
2017-06-17T10:40:51.992Z,56.70
2017-06-17T10:43:19.472Z,57.00
2017-06-17T10:45:47.284Z,56.90
2017-06-17T10:48:14.834Z,56.50
2017-06-17T10:50:42.341Z,56.80
2017-06-17T10:53:10.930Z,56.30
2017-06-17T10:55:38.816Z,56.70
2017-06-17T10:58:06.313Z,56.70
2017-06-17T11:00:33.831Z,56.80
2017-06-17T11:03:01.384Z,56.60
2017-06-17T11:05:30.792Z,56.50
2017-06-17T11:07:58.402Z,56.60
2017-06-17T11:10:26.282Z,57.00
2017-06-17T11:12:53.944Z,57.00
2017-06-17T11:15:21.702Z,57.30
2017-06-17T11:17:49.634Z,56.80
2017-06-17T11:20:17.193Z,56.80
2017-06-17T11:22:44.739Z,56.00
2017-06-17T11:25:12.262Z,56.20
2017-06-17T11:27:40.856Z,56.30
2017-06-17T11:30:08.785Z,56.30
2017-06-17T11:32:36.246Z,56.30
2017-06-17T11:35:03.995Z,55.90
2017-06-17T11:37:31.489Z,55.80
2017-06-17T11:39:59.033Z,55.60
2017-06-17T11:42:26.711Z,55.90
2017-06-17T11:44:54.243Z,55.80
2017-06-17T11:47:21.770Z,55.70
2017-06-17T11:49:49.763Z,55.30
2017-06-17T11:52:17.674Z,55.70
2017-06-17T11:54:45.221Z,55.70
2017-06-17T11:57:12.741Z,55.40
2017-06-17T11:59:40.868Z,56.50
2017-06-17T12:02:08.401Z,56.50
2017-06-17T12:04:36.345Z,56.70
2017-06-17T12:07:03.901Z,56.70
2017-06-17T12:09:31.428Z,56.40
2017-06-17T12:11:59.077Z,56.30
2017-06-17T12:14:27.483Z,56.40
2017-06-17T12:16:54.986Z,56.40
2017-06-17T12:19:22.606Z,56.80
2017-06-17T12:21:50.818Z,56.90
2017-06-17T12:24:18.296Z,56.90
2017-06-17T12:26:45.819Z,56.90
2017-06-17T12:29:13.368Z,57.20
2017-06-17T12:31:40.947Z,56.90
2017-06-17T12:34:08.450Z,57.90
2017-06-17T12:36:35.939Z,58.00
2017-06-17T12:39:03.939Z,57.70
2017-06-17T12:41:31.442Z,57.70
2017-06-17T12:43:58.930Z,57.90
2017-06-17T12:46:26.511Z,58.50
2017-06-17T12:48:54.263Z,57.60
2017-06-17T12:51:21.744Z,58.00
2017-06-17T12:53:49.309Z,57.60
2017-06-17T12:56:16.837Z,58.80
2017-06-17T12:58:44.397Z,58.40
2017-06-17T13:01:11.881Z,58.30
2017-06-17T13:03:40.242Z,58.10
2017-06-17T13:06:08.035Z,58.40
2017-06-17T13:08:35.958Z,58.70
2017-06-17T13:11:03.497Z,58.70
2017-06-17T13:13:31.013Z,58.50
2017-06-17T13:15:58.535Z,58.30
2017-06-17T13:18:26.076Z,57.90
2017-06-17T13:20:55.011Z,57.90
2017-06-17T13:23:22.613Z,57.80
2017-06-17T13:25:50.505Z,58.00
2017-06-17T13:28:18.043Z,58.00
2017-06-17T13:30:46.062Z,57.30
2017-06-17T13:33:13.807Z,57.30
2017-06-17T13:35:41.842Z,56.80
2017-06-17T13:38:09.346Z,56.80
2017-06-17T13:40:37.272Z,56.60
2017-06-17T13:43:04.772Z,56.60
2017-06-17T13:45:32.681Z,56.70
2017-06-17T13:48:00.252Z,56.70
2017-06-17T13:50:27.875Z,56.80
2017-06-17T13:52:55.802Z,57.30
2017-06-17T13:55:23.368Z,57.30
2017-06-17T13:57:50.883Z,57.60
2017-06-17T14:00:18.381Z,57.60
2017-06-17T14:02:46.202Z,57.80
2017-06-17T14:05:14.693Z,57.60
2017-06-17T14:07:42.701Z,57.30
2017-06-17T14:10:10.262Z,57.30
2017-06-17T14:12:37.815Z,57.60
2017-06-17T14:15:05.404Z,57.60
2017-06-17T14:17:32.974Z,57.90
2017-06-17T14:20:00.488Z,58.00
2017-06-17T14:22:28.545Z,58.10
2017-06-17T14:24:56.746Z,58.50
2017-06-17T14:27:24.295Z,58.50
2017-06-17T14:29:52.182Z,58.30
2017-06-17T14:32:19.709Z,58.60
2017-06-17T14:34:47.205Z,58.40
2017-06-17T14:37:15.116Z,58.90
2017-06-17T14:39:42.576Z,58.70
2017-06-17T14:42:10.350Z,58.50
2017-06-17T14:44:39.118Z,58.90
2017-06-17T14:47:07.144Z,59.10
2017-06-17T14:49:35.254Z,59.10
2017-06-17T14:52:04.505Z,58.50
2017-06-17T14:54:32.766Z,58.60
2017-06-17T14:57:00.922Z,58.60
2017-06-17T14:59:28.427Z,58.50
2017-06-17T15:01:56.069Z,57.60
2017-06-17T15:04:23.529Z,57.70
2017-06-17T15:06:51.049Z,57.80
2017-06-17T15:09:18.620Z,57.90
2017-06-17T15:11:46.141Z,58.00
2017-06-17T15:14:13.663Z,58.40
2017-06-17T15:16:41.683Z,57.90
2017-06-17T15:19:09.326Z,58.00
2017-06-17T15:21:37.716Z,58.00
2017-06-17T15:24:05.245Z,57.50
2017-06-17T15:26:32.735Z,57.60
2017-06-17T15:29:00.240Z,57.80
2017-06-17T15:31:27.977Z,57.80
2017-06-17T15:33:55.571Z,57.80
2017-06-17T15:36:23.165Z,57.90
2017-06-17T15:38:51.092Z,58.30
2017-06-17T15:41:18.535Z,58.30
2017-06-17T15:43:46.037Z,58.20
2017-06-17T15:46:13.553Z,58.30
2017-06-17T15:48:42.129Z,58.10
2017-06-17T15:51:09.614Z,58.50
2017-06-17T15:53:37.141Z,59.00
2017-06-17T15:56:04.627Z,58.70
2017-06-17T15:58:32.157Z,59.20
2017-06-17T16:00:59.658Z,58.70
2017-06-17T16:03:27.440Z,58.70
2017-06-17T16:05:54.993Z,58.40
2017-06-17T16:08:22.505Z,58.70
2017-06-17T16:10:49.983Z,59.00
2017-06-17T16:13:17.496Z,59.10
2017-06-17T16:18:18.886Z,59.60
2017-06-17T16:20:46.536Z,59.80
2017-06-17T16:23:13.994Z,59.90
2017-06-17T16:25:41.478Z,59.90
2017-06-17T16:28:09.052Z,59.90
2017-06-17T16:30:36.535Z,60.10
2017-06-17T16:33:04.592Z,60.30
2017-06-17T16:35:32.132Z,60.20
2017-06-17T16:37:59.650Z,60.10
2017-06-17T16:40:27.137Z,60.00
2017-06-17T16:42:54.880Z,59.80
2017-06-17T16:45:22.791Z,60.00
2017-06-17T16:47:50.264Z,60.00
2017-06-17T16:50:17.783Z,59.90
2017-06-17T16:52:45.707Z,60.10
2017-06-17T16:55:13.196Z,60.10
2017-06-17T16:57:40.702Z,60.00
2017-06-17T17:00:08.181Z,59.90
2017-06-17T17:02:35.720Z,59.70
2017-06-17T17:05:03.203Z,59.70
2017-06-17T17:07:30.710Z,60.00
2017-06-17T17:09:58.235Z,59.70
2017-06-17T17:12:26.421Z,59.70
2017-06-17T17:14:53.944Z,59.70
2017-06-17T17:17:21.846Z,59.30
2017-06-17T17:19:49.372Z,59.30
2017-06-17T17:22:16.885Z,59.20
2017-06-17T17:24:44.368Z,59.50
2017-06-17T17:27:12.569Z,59.60
2017-06-17T17:29:40.089Z,59.80
2017-06-17T17:32:07.593Z,59.30
2017-06-17T17:34:37.897Z,59.40
2017-06-17T17:37:05.383Z,59.90
2017-06-17T17:39:33.284Z,59.80
2017-06-17T17:42:00.919Z,59.80
2017-06-17T17:44:28.378Z,59.80
2017-06-17T17:46:55.875Z,59.80
2017-06-17T17:49:23.425Z,60.00
2017-06-17T17:51:51.284Z,59.90
2017-06-17T17:54:19.505Z,59.70
2017-06-17T17:56:46.975Z,59.70
2017-06-17T17:59:14.492Z,59.90
2017-06-17T18:01:42.034Z,59.90
2017-06-17T18:04:09.513Z,60.00
2017-06-17T18:06:37.656Z,60.20
2017-06-17T18:09:05.303Z,60.30
2017-06-17T18:11:32.787Z,60.10
2017-06-17T18:14:00.624Z,60.20
2017-06-17T18:16:28.363Z,60.30
2017-06-17T18:18:55.828Z,60.20
2017-06-17T18:21:23.714Z,60.40
2017-06-17T18:23:51.249Z,60.40
2017-06-17T18:26:19.086Z,60.50
2017-06-17T18:28:46.623Z,60.60
2017-06-17T18:31:14.073Z,60.60
2017-06-17T18:33:41.554Z,60.50
2017-06-17T18:36:09.044Z,60.60
2017-06-17T18:38:36.753Z,60.70
2017-06-17T18:41:05.428Z,60.80
2017-06-17T18:43:32.908Z,60.80
2017-06-17T18:46:00.805Z,61.00
2017-06-17T18:48:28.285Z,61.00
2017-06-17T18:50:56.032Z,61.20
2017-06-17T18:53:23.551Z,61.10
2017-06-17T18:55:51.041Z,61.30
2017-06-17T18:58:18.973Z,61.60
2017-06-17T19:00:46.536Z,61.60
2017-06-17T19:03:14.043Z,61.80
2017-06-17T19:05:41.545Z,61.80
2017-06-17T19:08:09.072Z,61.70
2017-06-17T19:10:37.246Z,61.70
2017-06-17T19:13:04.742Z,61.70
2017-06-17T19:15:32.253Z,61.90
2017-06-17T19:17:59.803Z,62.30
2017-06-17T19:20:27.292Z,62.30
2017-06-17T19:22:54.807Z,62.40
2017-06-17T19:25:22.381Z,62.50
2017-06-17T19:27:49.903Z,62.50
2017-06-17T19:30:17.395Z,62.50
2017-06-17T19:32:44.901Z,62.50
2017-06-17T19:35:12.772Z,62.90
2017-06-17T19:37:40.260Z,62.90
2017-06-17T19:40:07.795Z,62.90
2017-06-17T19:42:36.288Z,62.90
2017-06-17T19:45:04.183Z,63.00
2017-06-17T19:47:31.712Z,63.00
2017-06-17T19:49:59.254Z,63.00
2017-06-17T19:52:26.803Z,63.00
2017-06-17T19:54:54.307Z,63.00
2017-06-17T19:57:22.205Z,63.00
2017-06-17T19:59:49.758Z,63.00
2017-06-17T20:02:17.745Z,63.10
2017-06-17T20:04:45.256Z,63.10
2017-06-17T20:07:12.873Z,63.10
2017-06-17T20:09:40.767Z,63.00
2017-06-17T20:12:08.425Z,63.00
2017-06-17T20:14:35.966Z,63.00
2017-06-17T20:17:03.902Z,63.20
2017-06-17T20:19:31.367Z,63.20
2017-06-17T20:22:19.655Z,63.40
2017-06-17T20:24:47.147Z,63.40
2017-06-17T20:27:14.711Z,63.40
2017-06-17T20:29:43.021Z,63.40
2017-06-17T20:32:10.518Z,63.50
2017-06-17T20:34:38.062Z,63.60
2017-06-17T20:37:05.538Z,63.70
2017-06-17T20:39:33.130Z,64.00
2017-06-17T20:42:00.750Z,64.00
2017-06-17T20:44:28.249Z,64.00
2017-06-17T20:46:55.800Z,64.00
2017-06-17T20:49:23.337Z,64.20
2017-06-17T20:51:50.867Z,64.10
2017-06-17T20:54:18.378Z,64.20
2017-06-17T20:56:46.308Z,64.30
2017-06-17T20:59:13.806Z,64.30
2017-06-17T21:01:41.281Z,64.40
2017-06-17T21:04:09.211Z,64.40
2017-06-17T21:06:37.670Z,64.40
2017-06-17T21:09:05.206Z,64.60
2017-06-17T21:11:32.706Z,64.50
2017-06-17T21:14:00.206Z,64.80
2017-06-17T21:16:27.767Z,64.90
2017-06-17T21:18:55.658Z,64.70
2017-06-17T21:21:23.801Z,64.70
2017-06-17T21:23:51.343Z,64.70
2017-06-17T21:26:18.853Z,64.90
2017-06-17T21:28:46.344Z,64.80
2017-06-17T21:31:13.880Z,64.80
2017-06-17T21:33:41.390Z,64.90
2017-06-17T21:36:08.887Z,65.00
2017-06-17T21:38:36.443Z,64.80
2017-06-17T21:41:03.925Z,64.70
2017-06-17T21:43:31.381Z,64.60
2017-06-17T21:45:58.951Z,65.00
2017-06-17T21:48:26.438Z,64.70
2017-06-17T21:50:53.976Z,64.80
2017-06-17T21:53:21.950Z,64.80
2017-06-17T21:55:49.427Z,64.80
2017-06-17T21:58:16.917Z,64.80
2017-06-17T22:00:44.555Z,64.90
2017-06-17T22:03:12.470Z,64.90
2017-06-17T22:05:39.951Z,64.90
2017-06-17T22:08:07.586Z,65.10
2017-06-17T22:10:35.069Z,65.10
2017-06-17T22:13:02.581Z,65.20
2017-06-17T22:18:25.078Z,65.10
2017-06-17T22:20:53.157Z,64.90
2017-06-17T22:23:20.697Z,64.90
2017-06-17T22:25:48.265Z,65.10
2017-06-17T22:28:16.198Z,65.10
2017-06-17T22:30:43.670Z,65.50
2017-06-17T22:36:01.894Z,65.90
2017-06-17T22:38:30.186Z,66.30
2017-06-17T22:40:57.661Z,66.50
2017-06-17T22:43:26.085Z,66.90
2017-06-17T22:45:53.611Z,67.10
2017-06-17T22:48:22.336Z,67.30
2017-06-17T22:50:49.816Z,67.30
2017-06-17T22:53:17.342Z,67.40
2017-06-17T22:55:45.371Z,67.40
2017-06-17T22:58:12.811Z,67.40
2017-06-17T23:00:40.304Z,67.70
2017-06-17T23:03:07.775Z,67.70
2017-06-17T23:05:35.267Z,67.60
2017-06-17T23:08:02.745Z,67.60
2017-06-17T23:10:30.269Z,67.60
2017-06-17T23:12:57.926Z,67.60
2017-06-17T23:15:25.397Z,67.70
2017-06-17T23:17:52.917Z,67.70
2017-06-17T23:20:20.387Z,67.80
2017-06-17T23:22:48.374Z,67.80
2017-06-17T23:25:15.841Z,67.60
2017-06-17T23:27:43.527Z,67.80
2017-06-17T23:30:11.047Z,67.80
2017-06-17T23:32:38.918Z,67.90
2017-06-17T23:35:06.392Z,67.90
2017-06-17T23:37:33.991Z,67.90
2017-06-17T23:40:01.499Z,68.00
2017-06-17T23:42:29.058Z,68.00
2017-06-17T23:44:56.557Z,68.00
2017-06-17T23:47:24.178Z,68.00
2017-06-17T23:49:51.640Z,68.00
2017-06-17T23:52:19.132Z,67.90
2017-06-17T23:54:46.605Z,68.00
2017-06-17T23:57:14.655Z,68.20
2017-06-17T23:59:42.143Z,68.40
